Wiarton, Canada
Current Conditions -  °F | °C
As of 3:00 PM on Saturday 25 Oct 2014 (Local Time) from CYVV Reporting Station
Broken Clouds Broken Clouds  
Wind Chill: 59°   Ceiling: 2000
Heat Index: 59°   Visibility: 15mi
Dew Point: 46°   Wind: 17mph
Humidity: 63%   Direction: 270°W
Pressure: 29.59"   Gusts: 25mph
Location:  44.74°N, 81.14°W
Report Text: CYVV 251900Z 27015G22KT 15SM BKN020 15/08 A2959 RMK SC5 SLP024
Loading
Personal Weather Stations






























Interactive Weather Map
Tropical Storm Tracking
New forecast layout! Learn more

10-Day Weather Forecast

Advertisements
Track Severe Weather on mobile